Latest Weather Observations for Mackay

IDQ60801

Issued at 1:32 pm EST Thursday 28 May 2015 (issued every 30 minutes, with the page automatically refreshed every 10 minutes)

About weather observations | Map of weather stations | Latest weather observations for QLD | Other Formats
Station Details ID: 033119 Name: MACKAY M.O Lat: -21.12 Lon: 149.22 Height: 30.26 m
Data from the previous 72 hours. | See also: Recent months at Mackay
Date/Time
EST
Temp
°C
App
Temp
°C
Dew
Point
Rel
Hum
%
Delta-T
°C
Wind Press
QNH
hPa
Press
MSL
hPa
Rain
since 9 am
mm
Dir
 
Spd
km/h
Gust
km/h
Spd
kts
Gust
kts
28/01:00pm 22.6 22.5 20.0 85 1.7 SSE 20 30 11 16 1019.6 1019.5 0.0
28/12:30pm 22.6 22.2 20.1 86 1.6 SSE 22 33 12 18 1020.0 1019.9 0.0
28/11:00am 22.2 22.2 19.7 86 1.6 SSE 19 26 10 14 1021.0 1020.9 0.0
28/10:30am 22.2 22.3 19.9 87 1.5 SSE 19 30 10 16 1021.2 1021.1 0.0
28/10:00am 22.3 22.4 20.0 87 1.5 SSE 19 26 10 14 1021.5 1021.4 0.0
28/09:30am 21.1 20.6 19.2 89 1.2 SSE 20 28 11 15 1021.7 1021.6 0.0
28/09:00am 21.0 20.8 19.4 90 1.0 S 19 28 10 15 1021.7 1021.6 2.8
28/08:30am 20.4 20.7 18.8 90 1.0 S 15 20 8 11 1021.5 1021.4 2.8
28/08:00am 20.1 20.0 18.7 92 0.9 S 17 24 9 13 1021.1 1021.0 2.8
28/06:30am 18.7 19.1 18.2 97 0.3 S 13 17 7 9 1020.4 1020.3 2.8
28/06:00am 18.7 18.7 18.0 96 0.4 S 15 20 8 11 1019.9 1019.8 2.8
28/05:30am 18.7 18.7 18.0 96 0.4 S 15 20 8 11 1019.6 1019.5 2.8
28/05:00am 18.7 18.7 18.0 96 0.4 S 15 20 8 11 1019.4 1019.3 2.8
28/04:30am 19.1 18.5 18.5 96 0.4 S 19 24 10 13 1019.3 1019.2 2.8
28/04:00am 19.3 18.7 18.8 97 0.3 S 20 30 11 16 1019.4 1019.3 2.8
28/03:30am 19.2 19.1 18.7 97 0.3 S 17 24 9 13 1019.2 1019.1 2.6
28/03:00am 19.1 18.6 18.6 97 0.3 S 19 26 10 14 1019.4 1019.3 2.6
28/02:30am 19.0 19.6 18.5 97 0.3 S 13 20 7 11 1019.5 1019.4 2.6
28/02:00am 19.1 20.6 18.8 98 0.2 SSW 9 13 5 7 1019.7 1019.6 2.6
28/01:47am 19.4 21.6 19.1 98 0.2 SSW 6 11 3 6 1019.7 1019.6 2.6
28/01:30am 19.6 21.7 19.3 98 0.2 SW 7 11 4 6 1019.7 1019.6 2.6
28/01:00am 19.6 22.5 19.1 97 0.3 ESE 2 7 1 4 1019.9 1019.8 1.2
28/12:55am 19.5 22.0 19.0 97 0.3 ENE 4 11 2 6 1020.0 1019.9 1.2
28/12:30am 19.4 20.9 18.9 97 0.3 SSW 9 13 5 7 1019.9 1019.8 0.2
28/12:00am 19.3 21.2 18.5 95 0.5 WSW 6 7 3 4 1019.9 1019.8 0.0
 
Date/Time
EST
Temp
°C
App
Temp
°C
Dew
Point
Rel
Hum
%
Delta-T
°C
Wind Press
QNH
hPa
Press
MSL
hPa
Rain
since 9 am
mm
Dir
 
Spd
km/h
Gust
km/h
Spd
kts
Gust
kts
27/11:30pm 19.4 20.7 18.4 94 0.6 SW 9 11 5 6 1020.2 1020.1 0.0
27/11:00pm 19.6 21.0 18.6 94 0.6 SSW 9 13 5 7 1020.5 1020.4 0.0
27/10:30pm 19.9 21.4 18.8 93 0.7 SSW 9 11 5 6 1020.8 1020.7 0.0
27/10:00pm 21.1 22.5 19.5 90 1.0 SE 11 15 6 8 1020.8 1020.7 0.0
27/09:30pm 21.1 22.5 19.5 90 1.0 SE 11 15 6 8 1020.7 1020.6 0.0
27/09:00pm 21.2 22.6 19.5 90 1.1 SE 11 17 6 9 1020.7 1020.6 0.0
27/08:30pm 21.4 22.7 19.2 87 1.4 SE 11 17 6 9 1020.7 1020.6 0.0
27/08:00pm 21.4 22.2 19.0 86 1.5 SE 13 20 7 11 1020.6 1020.5 0.0
27/07:30pm 21.1 21.8 18.9 87 1.4 SSE 13 19 7 10 1020.4 1020.3 0.0
27/07:00pm 21.4 22.0 18.5 83 1.8 SE 13 20 7 11 1020.0 1019.9 0.0
27/06:30pm 20.8 21.6 19.1 90 1.1 SSE 13 20 7 11 1019.8 1019.7 0.0
27/06:00pm 20.9 20.8 18.7 87 1.4 SSE 17 22 9 12 1019.8 1019.7 0.0
27/05:30pm 21.1 21.9 19.0 88 1.3 SSE 13 22 7 12 1019.7 1019.6 0.0
27/05:00pm 21.6 22.0 19.1 86 1.6 SSE 15 22 8 12 1019.5 1019.4 0.0
27/04:30pm 22.0 22.5 19.2 84 1.8 SE 15 26 8 14 1019.2 1019.1 0.0
27/04:00pm 22.5 22.1 19.0 80 2.2 SE 19 28 10 15 1019.0 1018.9 0.0
27/03:30pm 22.4 22.1 19.1 81 2.1 SSE 19 28 10 15 1019.0 1018.9 0.0
27/03:00pm 22.7 22.2 19.1 80 2.3 SSE 20 28 11 15 1019.0 1018.9 0.0
27/02:30pm 22.8 22.2 18.8 78 2.5 SSE 20 32 11 17 1019.1 1019.0 0.0
27/02:00pm 23.0 22.3 18.7 77 2.7 SSE 20 32 11 17 1019.2 1019.1 0.0
27/01:30pm 23.2 22.6 18.9 77 2.7 SSE 20 32 11 17 1019.3 1019.2 0.0
27/01:00pm 22.8 21.7 18.7 77 2.6 SSE 22 33 12 18 1019.7 1019.6 0.0
27/12:30pm 23.0 22.0 18.9 78 2.6 SSE 22 33 12 18 1020.2 1020.1 0.0
27/12:00pm 22.9 21.8 18.6 77 2.7 SSE 22 35 12 19 1020.8 1020.7 0.0
27/11:30am 22.4 20.4 18.4 78 2.5 SSE 26 39 14 21 1021.2 1021.1 0.0
27/11:00am 22.6 21.4 18.5 77 2.6 SSE 22 35 12 19 1021.5 1021.4 0.0
27/10:30am 22.2 20.6 18.4 79 2.4 SSE 24 35 13 19 1021.9 1021.8 0.0
27/10:00am 22.7 22.0 18.7 78 2.5 SSE 20 32 11 17 1022.2 1022.1 0.0
27/09:30am 21.6 20.7 18.2 81 2.1 SSE 20 32 11 17 1022.1 1022.0 0.0
27/09:00am 21.5 20.6 18.1 81 2.1 SSE 20 30 11 16 1021.9 1021.8 5.2
27/08:30am 20.8 19.7 17.7 82 1.9 S 20 28 11 15 1021.8 1021.7 5.2
27/08:00am 20.2 18.7 17.6 85 1.6 S 22 32 12 17 1021.6 1021.5 5.2
27/07:30am 19.4 18.3 17.3 88 1.3 S 19 24 10 13 1021.4 1021.3 5.2
27/07:00am 18.9 17.7 17.1 89 1.1 S 19 26 10 14 1021.4 1021.3 5.2
27/06:30am 18.8 17.6 17.0 89 1.1 S 19 28 10 15 1020.8 1020.7 5.2
27/06:00am 18.7 17.6 17.2 91 0.9 S 19 24 10 13 1020.7 1020.6 5.2
27/05:30am 18.7 17.7 17.6 93 0.7 S 19 28 10 15 1020.5 1020.4 5.2
27/05:00am 18.9 18.3 17.6 92 0.8 S 17 26 9 14 1020.2 1020.1 5.2
27/04:30am 19.1 17.6 17.6 91 0.9 SSE 22 30 12 16 1020.0 1019.9 5.2
27/04:00am 19.5 18.5 18.0 91 0.9 SSE 20 30 11 16 1020.0 1019.9 5.2
27/03:30am 19.6 18.6 18.0 90 1.0 SSE 20 32 11 17 1020.0 1019.9 5.2
27/03:00am 19.4 18.3 17.8 90 1.0 S 20 28 11 15 1020.1 1020.0 5.2
27/02:30am 20.0 19.1 18.1 89 1.2 S 20 30 11 16 1020.2 1020.1 5.2
27/02:00am 20.4 19.7 18.6 89 1.1 S 20 30 11 16 1020.4 1020.3 5.2
27/01:30am 20.8 19.8 18.9 89 1.2 SSE 22 32 12 17 1020.7 1020.6 5.2
27/01:00am 21.0 20.6 18.8 87 1.4 SSE 19 26 10 14 1021.0 1020.9 5.2
27/12:30am 21.0 20.3 18.6 86 1.5 SSE 20 32 11 17 1021.0 1020.9 5.2
27/12:00am 21.0 20.7 19.1 89 1.2 SSE 19 30 10 16 1021.2 1021.1 5.2
 
Date/Time
EST
Temp
°C
App
Temp
°C
Dew
Point
Rel
Hum
%
Delta-T
°C
Wind Press
QNH
hPa
Press
MSL
hPa
Rain
since 9 am
mm
Dir
 
Spd
km/h
Gust
km/h
Spd
kts
Gust
kts
26/11:30pm 20.9 20.3 18.8 88 1.3 SSE 20 30 11 16 1021.6 1021.5 5.2
26/11:00pm 20.7 20.3 18.8 89 1.2 SE 19 30 10 16 1021.7 1021.6 5.2
26/10:30pm 20.7 19.3 18.9 89 1.1 SE 24 41 13 22 1022.1 1022.0 5.2
26/10:00pm 21.0 19.7 19.1 89 1.2 SSE 24 33 13 18 1022.1 1022.0 5.2
26/09:30pm 20.7 20.5 19.3 92 0.9 SSE 19 28 10 15 1022.1 1022.0 5.0
26/09:00pm 20.0 20.5 19.2 95 0.5 S 15 22 8 12 1022.4 1022.3 5.0
26/08:30pm 19.9 18.6 19.1 95 0.5 SSE 24 39 13 21 1022.6 1022.5 5.0
26/08:00pm 19.9 19.1 19.3 96 0.4 SSE 22 33 12 18 1022.6 1022.5 5.0
26/07:51pm 19.8 19.5 19.2 96 0.4 SSE 19 28 10 15 1022.6 1022.5 5.0
26/07:33pm 19.9 20.4 19.3 96 0.4 ESE 15 26 8 14 1022.4 1022.3 4.0
26/07:30pm 19.8 20.3 19.2 96 0.4 ESE 15 22 8 12 1022.5 1022.4 2.6
26/07:00pm 19.9 20.0 19.1 95 0.5 SSE 17 26 9 14 1022.1 1022.0 0.6
26/06:30pm 20.6 21.6 19.5 93 0.7 SSE 13 24 7 13 1021.9 1021.8 0.2
26/06:00pm 20.5 21.0 19.2 92 0.8 SSE 15 24 8 13 1021.4 1021.3 0.0
26/05:30pm 21.0 20.7 19.1 89 1.2 SSE 19 28 10 15 1021.2 1021.1 0.0
26/05:00pm 21.4 20.8 18.9 86 1.6 SSE 20 32 11 17 1021.0 1020.9 0.0
26/04:30pm 21.0 20.4 18.4 85 1.6 SSE 19 28 10 15 1020.7 1020.6 0.0
26/04:00pm 22.2 21.6 18.9 81 2.1 SSE 20 30 11 16 1020.6 1020.5 0.0
26/03:30pm 22.3 21.6 18.6 79 2.3 SSE 20 28 11 15 1020.6 1020.5 0.0
26/03:00pm 22.4 21.5 18.2 77 2.6 SSE 20 32 11 17 1020.6 1020.5 0.0
26/02:30pm 22.6 21.6 17.9 75 2.9 SSE 20 35 11 19 1021.1 1021.0 0.0
26/02:00pm 22.9 22.0 18.1 74 3.0 SSE 20 33 11 18 1021.4 1021.3 0.0
26/01:30pm 22.8 21.9 18.2 75 2.9 SSE 20 32 11 17 1021.6 1021.5 0.0
26/01:00pm 22.9 22.0 18.1 74 3.0 SSE 20 30 11 16 1022.1 1022.0 0.0
26/12:30pm 22.2 19.9 17.7 75 2.8 SSE 26 39 14 21 1022.6 1022.5 0.0
26/12:00pm 22.3 20.1 17.8 75 2.8 SSE 26 37 14 20 1023.0 1022.9 0.0
26/11:30am 22.3 20.1 17.8 75 2.8 SSE 26 41 14 22 1023.2 1023.1 0.0
26/11:00am 21.8 19.4 17.4 76 2.7 SSE 26 35 14 19 1023.6 1023.5 0.0
26/10:30am 21.7 20.0 18.0 79 2.3 SSE 24 35 13 19 1023.9 1023.8 0.0
26/10:00am 21.1 18.0 17.5 80 2.2 SSE 30 43 16 23 1024.1 1024.0 0.0
26/09:30am 20.5 17.3 17.2 81 2.0 SSE 30 41 16 22 1024.1 1024.0 0.0
26/09:00am 20.3 18.0 17.5 84 1.7 SSE 26 44 14 24 1024.4 1024.3 12.8
26/08:47am 19.8 17.4 17.3 85 1.5 SSE 26 39 14 21 1024.4 1024.3 12.8
26/08:30am 19.4 17.0 17.4 88 1.2 SSE 26 39 14 21 1024.4 1024.3 12.8
26/08:00am 18.6 16.5 17.1 91 0.9 S 24 35 13 19 1024.3 1024.2 12.8
26/07:30am 18.3 16.1 16.8 91 0.9 SSE 24 32 13 17 1024.2 1024.1 12.8
26/07:05am 18.1 15.9 16.9 93 0.7 SSE 24 35 13 19 1024.0 1023.9 12.8
26/07:01am 18.1 15.5 16.8 92 0.8 SSE 26 37 14 20 1024.0 1023.9 12.8
26/07:00am 18.0 15.4 16.8 93 0.7 SSE 26 37 14 20 1024.0 1023.9 12.8
26/06:42am 17.9 15.7 16.9 94 0.6 S 24 35 13 19 1023.9 1023.8 12.8
26/06:30am 17.9 16.0 16.7 93 0.7 SSE 22 33 12 18 1023.8 1023.7 12.8
26/06:00am 18.1 16.0 17.1 94 0.6 S 24 33 13 18 1023.6 1023.5 12.8
26/05:30am 18.2 16.2 17.4 95 0.5 S 24 39 13 21 1023.4 1023.3 12.6
26/05:00am 18.4 16.5 17.7 96 0.4 SSE 24 35 13 19 1023.1 1023.0 12.6
26/04:30am 18.9 16.4 18.1 95 0.5 SSE 28 39 15 21 1022.8 1022.7 12.6
26/04:00am 19.2 16.0 18.2 94 0.6 SSE 32 48 17 26 1022.8 1022.7 12.6
26/03:30am 19.3 17.1 18.7 96 0.4 SSE 28 43 15 23 1022.9 1022.8 12.6
26/03:00am 19.5 17.8 18.9 96 0.4 SSE 26 37 14 20 1022.8 1022.7 12.6
26/02:48am 19.4 18.0 18.9 97 0.3 SSE 24 35 13 19 1022.8 1022.7 12.6
26/02:30am 19.1 17.6 18.6 97 0.3 S 24 35 13 19 1022.9 1022.8 12.6
26/02:22am 19.1 17.6 18.6 97 0.3 S 24 35 13 19 1022.9 1022.8 12.6
26/02:00am 19.1 20.1 18.6 97 0.3 S 11 17 6 9 1023.3 1023.2 9.0
26/01:44am 19.2 20.2 18.7 97 0.3 SSE 11 17 6 9 1023.6 1023.5 4.2
26/01:30am 19.4 20.1 18.8 96 0.4 S 13 20 7 11 1023.6 1023.5 0.4
26/01:00am 20.2 19.2 17.6 85 1.6 E 19 28 10 15 1023.5 1023.4 0.4
26/12:30am 20.0 20.0 19.0 94 0.6 S 17 22 9 12 1023.6 1023.5 0.4
26/12:00am 19.8 19.7 18.8 94 0.6 SSE 17 24 9 13 1023.9 1023.8 0.4
 
Date/Time
EST
Temp
°C
App
Temp
°C
Dew
Point
Rel
Hum
%
Delta-T
°C
Wind Press
QNH
hPa
Press
MSL
hPa
Rain
since 9 am
mm
Dir
 
Spd
km/h
Gust
km/h
Spd
kts
Gust
kts
25/11:38pm 19.8 19.4 18.8 94 0.6 SSE 19 26 10 14 1023.9 1023.8 0.4
25/11:30pm 19.7 19.6 18.7 94 0.6 SSE 17 20 9 11 1023.9 1023.8 0.4
25/11:08pm 20.1 19.7 18.8 92 0.8 SSE 19 32 10 17 1024.3 1024.2 0.2
25/11:00pm 20.3 19.8 19.0 92 0.8 SSE 20 32 11 17 1024.4 1024.3 0.2
25/10:30pm 21.0 21.1 19.1 89 1.2 SSE 17 26 9 14 1024.5 1024.4 0.2
25/10:00pm 21.0 20.5 17.9 82 1.9 SE 17 26 9 14 1024.6 1024.5 0.2
25/09:30pm 21.6 20.7 18.1 80 2.2 SSE 20 30 11 16 1024.4 1024.3 0.0
25/09:00pm 21.4 21.2 18.5 83 1.8 SE 17 24 9 13 1024.2 1024.1 0.0
25/08:30pm 20.8 20.3 18.7 88 1.3 SSE 19 30 10 16 1024.0 1023.9 0.0
25/08:00pm 20.5 20.4 18.7 89 1.1 SSE 17 26 9 14 1023.9 1023.8 0.0
25/07:30pm 21.0 19.8 17.4 80 2.2 SSE 20 32 11 17 1023.5 1023.4 0.0
25/07:00pm 20.7 19.9 17.9 84 1.7 SSE 19 26 10 14 1023.4 1023.3 0.0
25/06:30pm 20.1 19.9 18.5 90 1.0 SSE 17 24 9 13 1023.5 1023.4 0.0
25/06:00pm 20.6 20.0 18.8 89 1.1 SSE 20 30 11 16 1023.0 1022.9 0.0
25/05:30pm 20.7 20.0 18.6 88 1.3 SSE 20 33 11 18 1023.1 1023.0 0.0
25/05:00pm 20.5 19.9 18.9 90 1.0 SE 20 32 11 17 1023.1 1023.0 0.0
25/04:30pm 21.7 21.0 18.7 83 1.9 SSE 20 30 11 16 1022.8 1022.7 0.0
25/04:00pm 22.2 21.0 18.5 79 2.3 SSE 22 33 12 18 1022.8 1022.7 0.0
25/03:30pm 22.2 21.0 18.4 79 2.4 SSE 22 33 12 18 1022.8 1022.7 0.0
25/03:00pm 22.7 21.9 18.4 76 2.7 SSE 20 35 11 19 1022.9 1022.8 0.0
25/02:30pm 22.0 20.5 18.5 80 2.2 SSE 24 35 13 19 1023.1 1023.0 0.0
25/02:00pm 22.9 22.2 18.6 77 2.7 SSE 20 30 11 16 1023.1 1023.0 0.0

Other Formats:

Comma delimited format used in spreadsheet applications
http://www.bom.gov.au/fwo/IDQ60801/IDQ60801.94367.axf

JavaScript Object Notation format (JSON) in row-major order
http://www.bom.gov.au/fwo/IDQ60801/IDQ60801.94367.json